Time;durP1;ratioP1;P1;durP2;ratioP2;P2;SDS_P1;SDS_P2;PMS_P1;PMS_P2;Temp;Humidity;BMP_temperature;BMP_pressure;BME280_temperature;BME280_humidity;BME280_pressure;Samples;Min_cycle;Max_cycle;Signal;HPM_P1;HPM_P2
2021/10/12 00:02:14;;;;;;;;;8.00;6.00;;;;;12.13;67.32;102642.72;5079553;27;45286;-81
2021/10/12 05:09:04;;;;;;;;;8.75;6.75;;;;;10.62;70.84;102471.72;5030001;28;45527;-78
2021/10/12 05:11:29;;;;;;;;;6.50;6.50;;;;;10.60;70.71;102469.97;5037721;28;45424;-79
2021/10/12 05:13:56;;;;;;;;;14.25;10.75;;;;;10.58;70.99;102473.50;5038772;28;45274;-79
2021/10/12 05:16:22;;;;;;;;;8.75;7.00;;;;;10.63;70.85;102472.59;5037167;28;45322;-79
2021/10/12 05:18:48;;;;;;;;;10.00;6.00;;;;;10.64;70.78;102474.38;5036512;28;45857;-78
2021/10/12 05:21:13;;;;;;;;;5.50;5.00;;;;;10.62;70.94;102462.97;5038600;28;46404;-78
2021/10/12 05:23:39;;;;;;;;;6.00;5.50;;;;;10.65;71.09;102476.09;5036602;28;45467;-79
2021/10/12 05:26:06;;;;;;;;;12.75;8.00;;;;;10.57;70.89;102469.13;5033519;28;45480;-79
2021/10/12 05:28:35;;;;;;;;;8.75;6.50;;;;;10.58;70.74;102451.59;5036367;28;45470;-79
2021/10/12 05:31:00;;;;;;;;;7.25;6.75;;;;;10.56;70.93;102459.50;5038481;28;46311;-79
2021/10/12 05:33:26;;;;;;;;;7.75;6.50;;;;;10.57;70.87;102463.84;5053000;28;45358;-79
2021/10/12 05:35:54;;;;;;;;;9.50;7.25;;;;;10.56;70.75;102467.38;5037654;28;45398;-78
2021/10/12 05:38:20;;;;;;;;;7.75;7.75;;;;;10.58;71.03;102462.09;5037919;28;45448;-79
2021/10/12 05:40:47;;;;;;;;;7.00;7.00;;;;;10.55;70.86;102457.75;5037858;28;45477;-79
2021/10/12 05:43:13;;;;;;;;;7.75;7.00;;;;;10.54;70.94;102457.75;5053458;28;45378;-78
2021/10/12 05:45:38;;;;;;;;;10.00;7.75;;;;;10.52;71.27;102463.00;5037116;28;45472;-79
2021/10/12 05:48:07;;;;;;;;;13.25;7.00;;;;;10.55;71.51;102463.00;5038080;28;45499;-79
2021/10/12 05:50:33;;;;;;;;;9.75;9.50;;;;;10.58;71.56;102457.72;5033893;28;45914;-77
2021/10/12 05:55:47;;;;;;;;;10.75;8.00;;;;;10.67;71.59;102450.66;5035658;28;45492;-78
2021/10/12 05:58:14;;;;;;;;;7.25;7.25;;;;;10.68;71.72;102462.94;5035588;28;45475;-77
2021/10/12 06:00:40;;;;;;;;;11.00;8.00;;;;;10.67;71.63;102455.91;5021360;28;45637;-76
2021/10/12 06:03:05;;;;;;;;;12.25;8.00;;;;;10.68;71.36;102458.56;5036675;28;45330;-77
2021/10/12 06:05:31;;;;;;;;;11.75;10.75;;;;;10.64;71.51;102461.22;5038040;28;46061;-77
2021/10/12 06:07:56;;;;;;;;;11.00;7.00;;;;;10.62;71.13;102463.84;5037429;28;45813;-77
2021/10/12 06:10:22;;;;;;;;;11.25;9.50;;;;;10.64;71.27;102463.84;5035710;28;45629;-77
2021/10/12 06:12:47;;;;;;;;;9.00;9.00;;;;;10.62;71.47;102457.72;5037415;28;45501;-77
2021/10/12 06:15:13;;;;;;;;;10.25;9.50;;;;;10.66;71.35;102457.69;5036627;28;45867;-77
2021/10/12 06:17:38;;;;;;;;;10.50;10.00;;;;;10.61;71.38;102454.22;5037798;28;45342;-76
2021/10/12 06:20:04;;;;;;;;;12.25;11.75;;;;;10.56;71.36;102456.88;5034142;28;46543;-76
2021/10/12 06:22:30;;;;;;;;;9.25;8.50;;;;;10.55;71.33;102448.97;5037268;28;45422;-76
2021/10/12 06:24:55;;;;;;;;;12.00;11.00;;;;;10.54;71.33;102450.72;5031287;28;45563;-76
2021/10/12 06:27:21;;;;;;;;;10.50;10.00;;;;;10.53;71.57;102449.00;5023758;28;45391;-76
2021/10/12 06:29:47;;;;;;;;;9.00;7.00;;;;;10.55;71.41;102452.47;5037259;28;45314;-76
2021/10/12 06:32:12;;;;;;;;;10.25;8.00;;;;;10.56;71.51;102450.72;5039221;28;45223;-76
2021/10/12 06:34:38;;;;;;;;;11.25;10.00;;;;;10.55;71.81;102467.38;5036998;28;45552;-76
2021/10/12 06:37:03;;;;;;;;;11.50;9.75;;;;;10.59;71.49;102471.75;5030908;28;45416;-76
2021/10/12 06:39:29;;;;;;;;;12.25;9.25;;;;;10.53;71.56;102454.25;5027253;28;45388;-76
2021/10/12 06:41:54;;;;;;;;;10.00;9.00;;;;;10.56;71.65;102459.50;5029921;28;45718;-76
2021/10/12 06:44:20;;;;;;;;;10.25;8.25;;;;;10.58;71.57;102456.84;5038807;28;45554;-76
2021/10/12 06:46:46;;;;;;;;;11.00;9.75;;;;;10.55;71.66;102452.47;5038975;28;45441;-76
2021/10/12 06:49:11;;;;;;;;;11.50;10.00;;;;;10.60;71.68;102462.97;5037248;28;45664;-76
2021/10/12 06:51:37;;;;;;;;;11.00;9.75;;;;;10.56;71.68;102459.50;5039315;28;45263;-76
2021/10/12 06:54:02;;;;;;;;;16.25;13.00;;;;;10.60;71.81;102469.97;5048457;28;45424;-76
2021/10/12 06:56:27;;;;;;;;;8.50;7.75;;;;;10.58;71.62;102465.63;5038663;28;45323;-77
2021/10/12 06:58:53;;;;;;;;;15.75;12.00;;;;;10.58;71.75;102465.63;5038576;28;45383;-77
2021/10/12 07:01:18;;;;;;;;;10.75;10.00;;;;;10.60;71.52;102469.97;5040623;28;45392;-76
2021/10/12 07:03:43;;;;;;;;;15.00;11.75;;;;;10.57;71.51;102465.59;5036762;28;45524;-77
2021/10/12 07:06:09;;;;;;;;;10.25;10.25;;;;;10.61;71.51;102471.75;5030310;28;45396;-76
2021/10/12 07:08:34;;;;;;;;;9.00;9.00;;;;;10.60;71.67;102470.84;5028491;28;46295;-76
2021/10/12 07:10:59;;;;;;;;;13.75;9.50;;;;;10.62;71.98;102461.19;5025222;28;45384;-76
2021/10/12 07:13:31;;;;;;;;;10.75;10.75;;;;;10.67;72.08;102456.78;5031919;28;45702;-76
2021/10/12 07:15:57;;;;;;;;;12.50;10.25;;;;;10.75;71.74;102459.38;5039670;28;45445;-76
2021/10/12 07:18:25;;;;;;;;;14.00;13.75;;;;;10.77;71.79;102454.97;5037628;28;46072;-76
2021/10/12 07:20:51;;;;;;;;;12.25;9.75;;;;;10.80;71.71;102452.34;5034117;28;45477;-76
2021/10/12 07:23:17;;;;;;;;;6.50;5.00;;;;;10.87;71.67;102452.28;5037570;28;45289;-76
2021/10/12 07:25:47;;;;;;;;;10.50;9.00;;;;;10.94;71.70;102448.72;5037123;28;45543;-76
2021/10/12 07:28:13;;;;;;;;;11.50;8.50;;;;;10.96;72.11;102432.97;5041559;28;45452;-76
2021/10/12 07:30:38;;;;;;;;;12.50;10.25;;;;;11.01;71.42;102441.69;5040093;28;45436;-76
2021/10/12 07:33:03;;;;;;;;;12.50;10.00;;;;;11.06;71.00;102437.28;5042739;28;45326;-76
2021/10/12 07:35:29;;;;;;;;;12.25;10.50;;;;;11.10;71.29;102433.72;5041587;28;45499;-76
2021/10/12 07:37:55;;;;;;;;;10.75;8.50;;;;;11.15;71.63;102436.31;5041335;28;46558;-76
2021/10/12 07:40:21;;;;;;;;;11.75;10.00;;;;;11.19;71.79;102429.25;5039824;28;45441;-76
2021/10/12 07:42:46;;;;;;;;;13.00;11.25;;;;;11.21;71.25;102435.41;5035756;28;45424;-76
2021/10/12 07:45:12;;;;;;;;;13.00;11.00;;;;;11.23;71.35;102426.59;5025741;28;45471;-77
2021/10/12 07:47:37;;;;;;;;;9.75;9.75;;;;;11.28;71.42;102421.31;5033770;28;46497;-76
2021/10/12 07:50:04;;;;;;;;;11.50;10.25;;;;;11.29;71.46;102430.94;5040256;28;45278;-76
2021/10/12 07:52:31;;;;;;;;;12.75;10.50;;;;;11.32;71.30;102435.28;5038514;28;45342;-77
2021/10/12 07:57:31;;;;;;;;;15.75;14.75;;;;;11.31;70.55;102438.81;5034838;28;45255;-76
2021/10/12 07:59:56;;;;;;;;;10.00;10.00;;;;;11.30;71.06;102426.53;5040160;28;45402;-76
2021/10/12 08:02:21;;;;;;;;;11.25;10.50;;;;;11.37;70.79;102425.59;5040905;28;45415;-78
2021/10/12 08:04:47;;;;;;;;;12.00;9.50;;;;;11.37;71.33;102425.59;5037140;28;45407;-78
2021/10/12 08:07:12;;;;;;;;;12.25;9.75;;;;;11.42;70.75;102423.78;5028725;28;45516;-78
2021/10/12 08:09:38;;;;;;;;;7.50;7.00;;;;;11.50;70.96;102433.38;5025448;28;45505;-78
2021/10/12 08:12:05;;;;;;;;;15.25;10.50;;;;;11.50;71.29;102422.84;5039433;28;45409;-78
2021/10/12 08:14:33;;;;;;;;;9.75;9.75;;;;;11.58;70.65;102429.78;5037190;28;45433;-78
2021/10/12 08:16:58;;;;;;;;;5.50;5.50;;;;;11.63;70.76;102418.34;5024783;28;45761;-78
2021/10/12 08:19:24;;;;;;;;;15.50;13.00;;;;;11.74;70.88;102412.94;5037304;28;45409;-78
2021/10/12 08:21:49;;;;;;;;;16.50;14.50;;;;;11.83;70.28;102418.09;5038521;28;45637;-78
2021/10/12 08:24:17;;;;;;;;;15.75;13.00;;;;;11.91;70.04;102416.25;5040073;28;45268;-78
2021/10/12 08:26:43;;;;;;;;;15.25;13.00;;;;;11.94;70.11;102407.44;5026892;28;46449;-78
2021/10/12 08:29:09;;;;;;;;;16.25;14.50;;;;;11.97;69.60;102411.81;5038053;28;45424;-78
2021/10/12 08:31:34;;;;;;;;;16.50;15.25;;;;;11.99;69.67;102420.56;5037043;28;45369;-78
2021/10/12 08:33:59;;;;;;;;;14.00;13.25;;;;;12.01;69.90;102416.16;5028967;28;45537;-78
2021/10/12 08:36:25;;;;;;;;;9.00;7.00;;;;;12.07;69.57;102409.94;5038629;28;45468;-78
2021/10/12 08:38:54;;;;;;;;;12.25;12.25;;;;;12.13;69.81;102416.03;5039410;28;45299;-78
2021/10/12 08:41:27;;;;;;;;;13.00;13.00;;;;;12.18;69.61;102407.19;5040383;28;45212;-78
2021/10/12 08:43:54;;;;;;;;;14.25;12.75;;;;;12.24;69.40;102401.84;5037751;28;45549;-78
2021/10/12 08:46:23;;;;;;;;;13.50;11.25;;;;;12.28;69.37;102395.63;5030248;28;45252;-78
2021/10/12 08:48:48;;;;;;;;;16.75;13.50;;;;;12.40;69.12;102402.50;5035459;28;45406;-78
2021/10/12 08:51:14;;;;;;;;;7.00;6.00;;;;;12.46;69.74;102391.00;5029705;28;45346;-78
2021/10/12 08:53:39;;;;;;;;;10.75;9.50;;;;;12.55;69.29;102385.59;5038025;28;45829;-78
2021/10/12 08:56:06;;;;;;;;;13.75;13.25;;;;;12.71;68.54;102380.97;5032970;28;46637;-78
2021/10/12 08:58:31;;;;;;;;;16.00;15.00;;;;;12.73;68.56;102374.78;5039167;28;45227;-78
2021/10/12 09:01:07;;;;;;;;;16.75;14.00;;;;;12.80;68.04;102382.56;5032829;28;45507;-78
2021/10/12 09:06:30;;;;;;;;;9.25;8.25;;;;;12.82;68.04;102378.13;5036579;28;46041;-78
2021/10/12 09:08:58;;;;;;;;;12.00;11.75;;;;;12.87;68.24;102379.81;5043893;28;45646;-78
2021/10/12 09:11:26;;;;;;;;;16.25;15.25;;;;;12.92;67.42;102375.34;5027183;28;45398;-80
2021/10/12 09:14:01;;;;;;;;;18.00;15.00;;;;;12.98;67.36;102375.25;5032496;28;46380;-80
2021/10/12 09:16:34;;;;;;;;;19.50;15.75;;;;;13.02;67.67;102369.03;5034054;28;46634;-80
2021/10/12 09:19:01;;;;;;;;;14.00;14.00;;;;;13.08;67.72;102361.91;5039317;28;45624;-80
2021/10/12 09:21:31;;;;;;;;;16.50;15.75;;;;;13.22;67.43;102367.81;5035627;28;45207;-80
2021/10/12 09:24:20;;;;;;;;;9.25;8.50;;;;;13.31;67.87;102350.91;5038635;28;45449;-80
2021/10/12 09:26:59;;;;;;;;;15.00;14.25;;;;;13.52;66.89;102350.53;5031580;28;45587;-80
2021/10/12 09:32:09;;;;;;;;;12.50;10.50;;;;;13.68;66.48;102349.34;5038402;28;45190;-80
2021/10/12 09:34:37;;;;;;;;;16.50;15.25;;;;;13.78;65.83;102362.41;5051469;28;45893;-80
2021/10/12 09:37:04;;;;;;;;;15.75;14.00;;;;;13.79;65.18;102353.56;5029701;28;46576;-80
2021/10/12 09:39:37;;;;;;;;;18.25;16.00;;;;;13.78;65.46;102347.38;5039664;28;45659;-78
2021/10/12 09:42:04;;;;;;;;;16.50;13.75;;;;;13.87;65.04;102363.97;5038536;28;45568;-79
2021/10/12 09:44:29;;;;;;;;;18.50;16.75;;;;;13.81;64.58;102351.75;5026520;28;45487;-78
2021/10/12 09:47:08;;;;;;;;;16.00;14.25;;;;;13.82;65.05;102353.50;5025569;28;45459;-78
2021/10/12 09:49:35;;;;;;;;;18.00;16.25;;;;;13.82;64.94;102349.09;5035806;28;45689;-78
2021/10/12 09:52:08;;;;;;;;;16.25;14.75;;;;;13.85;64.82;102348.16;5039010;28;45530;-78
2021/10/12 09:55:00;;;;;;;;;16.00;14.25;;;;;13.87;65.47;102351.63;5035662;28;45495;-78
2021/10/12 09:57:28;;;;;;;;;15.75;14.75;;;;;13.89;65.38;102344.53;5032022;28;45410;-78
2021/10/12 09:59:53;;;;;;;;;10.75;10.75;;;;;13.93;65.46;102343.56;5038130;28;45223;-78
2021/10/12 10:02:21;;;;;;;;;13.25;11.50;;;;;13.96;65.86;102345.25;5033397;28;45409;-78
2021/10/12 10:04:47;;;;;;;;;13.50;10.50;;;;;14.02;64.96;102338.97;5029214;28;45473;-78
2021/10/12 10:07:45;;;;;;;;;15.00;12.00;;;;;14.10;65.08;102350.25;5037358;28;45515;-78
2021/10/12 10:10:14;;;;;;;;;11.00;10.50;;;;;14.05;64.95;102333.63;5027501;28;46112;-78
2021/10/12 10:12:39;;;;;;;;;10.50;9.00;;;;;14.10;64.35;102339.66;5029873;28;46089;-78
2021/10/12 10:15:05;;;;;;;;;13.00;13.00;;;;;14.16;65.32;102342.19;5030718;28;45375;-77
2021/10/12 10:17:32;;;;;;;;;15.25;14.50;;;;;14.24;65.39;102336.72;5026324;28;46645;-78
2021/10/12 10:19:58;;;;;;;;;19.75;16.75;;;;;14.25;64.63;102322.59;5021486;28;46085;-78
2021/10/12 10:22:33;;;;;;;;;18.25;14.75;;;;;14.35;64.82;102328.53;5030559;28;45881;-78
2021/10/12 10:24:59;;;;;;;;;16.25;14.50;;;;;14.38;64.88;102309.06;5037127;28;45430;-78
2021/10/12 10:27:38;;;;;;;;;18.75;18.00;;;;;14.56;64.23;102328.06;5038061;28;46098;-78
2021/10/12 10:30:27;;;;;;;;;17.25;12.50;;;;;14.68;64.38;102322.47;5038457;28;45605;-78
2021/10/12 10:32:58;;;;;;;;;18.25;15.75;;;;;14.79;63.77;102313.38;5038565;28;45427;-77
2021/10/12 10:35:35;;;;;;;;;14.50;10.25;;;;;14.86;63.27;102312.34;5038654;28;45358;-77
2021/10/12 10:38:19;;;;;;;;;15.25;13.75;;;;;14.89;63.23;102314.06;5028599;28;46296;-77
2021/10/12 10:40:46;;;;;;;;;14.50;13.50;;;;;14.91;63.29;102313.09;5033637;28;45672;-78
2021/10/12 10:43:11;;;;;;;;;8.00;6.50;;;;;14.87;62.50;102298.19;5042628;28;45484;-78
2021/10/12 10:45:40;;;;;;;;;10.25;8.50;;;;;14.91;62.01;102299.00;5041517;28;45433;-78
2021/10/12 10:48:06;;;;;;;;;12.00;12.00;;;;;14.86;62.32;102307.06;5042470;28;45507;-78
2021/10/12 10:50:35;;;;;;;;;5.00;5.00;;;;;14.84;62.40;102296.47;5033552;28;45541;-78
2021/10/12 10:53:03;;;;;;;;;10.50;8.25;;;;;14.84;62.43;102290.31;5035328;28;45228;-78
2021/10/12 10:55:31;;;;;;;;;12.50;8.75;;;;;14.85;62.18;102295.59;5033127;28;45700;-78
2021/10/12 10:58:06;;;;;;;;;9.50;8.50;;;;;14.87;61.56;102300.84;5040330;28;45482;-78
2021/10/12 11:00:42;;;;;;;;;11.00;11.00;;;;;14.87;62.28;102299.97;5024836;28;45220;-78
2021/10/12 11:03:28;;;;;;;;;10.25;10.25;;;;;14.91;62.21;102288.41;5041732;28;45463;-78
2021/10/12 11:05:55;;;;;;;;;8.75;7.75;;;;;14.97;62.12;102296.16;5039331;28;45205;-78
2021/10/12 11:08:23;;;;;;;;;10.25;9.25;;;;;15.01;61.83;102292.56;5038038;28;46634;-78
2021/10/12 11:11:00;;;;;;;;;12.50;8.75;;;;;15.02;61.54;102274.88;5028655;28;45436;-78
2021/10/12 11:13:31;;;;;;;;;11.25;9.75;;;;;15.04;61.99;102281.84;5029669;28;45369;-77
2021/10/12 11:15:57;;;;;;;;;7.50;7.50;;;;;15.05;61.64;102274.78;5039470;28;46109;-78
2021/10/12 11:18:22;;;;;;;;;10.50;8.75;;;;;15.10;61.54;102264.94;5030322;28;45493;-78
2021/10/12 11:20:56;;;;;;;;;9.00;7.75;;;;;15.17;61.64;102269.16;5037475;28;45598;-78
2021/10/12 11:23:25;;;;;;;;;10.25;6.50;;;;;15.29;61.36;102272.34;5037143;28;45583;-78
2021/10/12 11:26:17;;;;;;;;;9.25;8.50;;;;;15.35;60.44;102266.91;5040444;28;45421;-78
2021/10/12 11:28:52;;;;;;;;;9.75;9.75;;;;;15.42;59.47;102275.53;5041693;28;46044;-78
2021/10/12 11:31:22;;;;;;;;;9.00;7.50;;;;;15.52;59.38;102269.06;5029571;28;45756;-78
2021/10/12 11:33:53;;;;;;;;;9.75;5.00;;;;;15.63;58.99;102275.81;5028585;28;45313;-78
2021/10/12 11:36:24;;;;;;;;;12.75;11.00;;;;;15.66;58.69;102275.72;5041289;28;45447;-78
2021/10/12 11:38:51;;;;;;;;;7.25;5.00;;;;;15.67;57.90;102271.28;5041155;28;46166;-78
2021/10/12 11:41:20;;;;;;;;;7.25;7.25;;;;;15.63;58.68;102257.28;5025994;28;45575;-78
2021/10/12 11:43:47;;;;;;;;;9.00;9.00;;;;;15.72;58.63;102258.75;5031627;28;45337;-78
2021/10/12 11:46:20;;;;;;;;;7.25;6.75;;;;;15.71;59.05;102242.00;5026648;28;45174;-78
2021/10/12 11:48:46;;;;;;;;;7.75;7.50;;;;;15.74;59.17;102233.94;5041411;28;45451;-78
2021/10/12 11:51:38;;;;;;;;;7.25;7.25;;;;;15.83;57.67;102237.22;5033991;28;45367;-78
2021/10/12 11:54:04;;;;;;;;;9.00;6.00;;;;;15.79;57.93;102243.53;5031776;28;45614;-78
2021/10/12 11:56:36;;;;;;;;;7.50;6.00;;;;;15.72;58.29;102230.47;5040989;28;45346;-80
2021/10/12 11:59:02;;;;;;;;;8.25;7.50;;;;;15.68;58.94;102228.81;5040018;28;46377;-80
2021/10/12 12:01:36;;;;;;;;;11.75;7.25;;;;;15.66;58.30;102222.69;5040714;28;45584;-80
2021/10/12 12:04:04;;;;;;;;;9.50;8.25;;;;;15.66;58.47;102230.66;5040546;28;45287;-81
2021/10/12 12:06:33;;;;;;;;;6.00;6.00;;;;;15.61;58.81;102221.97;5040902;28;45537;-77
2021/10/12 12:09:02;;;;;;;;;9.00;8.00;;;;;15.61;59.33;102217.56;5031073;28;46554;-79
2021/10/12 12:11:30;;;;;;;;;4.25;3.25;;;;;15.68;59.06;102217.38;5038984;28;45425;-78
2021/10/12 12:13:57;;;;;;;;;5.00;4.00;;;;;15.70;59.50;102204.94;5041120;28;45354;-79
2021/10/12 12:16:24;;;;;;;;;4.50;4.50;;;;;15.78;59.32;102199.41;5034986;28;45553;-79
2021/10/12 12:18:50;;;;;;;;;5.00;4.75;;;;;15.88;58.92;102198.16;5039225;28;46092;-79
2021/10/12 12:21:36;;;;;;;;;5.50;5.00;;;;;16.03;59.09;102196.81;5037521;28;45319;-79
2021/10/12 12:24:02;;;;;;;;;6.75;5.00;;;;;16.11;58.49;102183.31;5042419;28;45222;-79
2021/10/12 12:26:30;;;;;;;;;5.00;5.00;;;;;16.21;58.30;102181.22;5027511;28;45547;-79
2021/10/12 12:29:31;;;;;;;;;3.25;3.25;;;;;16.29;57.82;102187.16;5040724;28;45440;-79
2021/10/12 12:31:58;;;;;;;;;5.50;5.00;;;;;16.35;57.80;102187.84;5038498;28;45540;-79
2021/10/12 12:34:32;;;;;;;;;7.25;3.75;;;;;16.42;58.16;102187.56;5039884;28;45322;-79
2021/10/12 12:36:59;;;;;;;;;5.00;3.75;;;;;16.40;57.48;102173.50;5028882;28;45383;-79
2021/10/12 12:39:42;;;;;;;;;4.75;3.00;;;;;16.40;57.07;102162.00;5037859;28;46114;-79
2021/10/12 12:42:28;;;;;;;;;5.00;4.00;;;;;16.44;56.84;102168.97;5040459;28;45318;-79
2021/10/12 12:45:22;;;;;;;;;6.00;3.25;;;;;16.44;56.71;102173.41;5034208;28;45426;-79
2021/10/12 12:48:02;;;;;;;;;4.25;4.00;;;;;16.37;56.76;102162.97;5039104;28;45242;-79
2021/10/12 12:50:35;;;;;;;;;3.00;3.00;;;;;16.34;56.48;102173.72;5030849;28;47357;-79
2021/10/12 12:53:04;;;;;;;;;6.25;5.00;;;;;16.30;56.43;102157.03;5040186;28;45566;-79
2021/10/12 12:55:41;;;;;;;;;4.50;4.50;;;;;16.32;56.92;102151.69;5040490;28;45161;-79
2021/10/12 12:58:08;;;;;;;;;2.75;2.75;;;;;16.33;56.70;102155.19;5039744;28;45452;-79
2021/10/12 13:00:36;;;;;;;;;7.25;5.00;;;;;16.33;57.09;102153.41;5029660;28;45437;-79
2021/10/12 13:03:03;;;;;;;;;5.50;5.50;;;;;16.35;57.12;102156.88;5034913;28;45293;-79
2021/10/12 13:05:29;;;;;;;;;5.00;4.00;;;;;16.37;56.53;102155.03;5034890;28;45237;-79
2021/10/12 13:07:55;;;;;;;;;5.50;5.50;;;;;16.37;56.84;102141.75;5026538;28;45212;-79
2021/10/12 13:10:22;;;;;;;;;5.75;4.25;;;;;16.49;57.08;102150.22;5040330;28;45355;-79
2021/10/12 13:12:48;;;;;;;;;5.00;5.00;;;;;16.46;56.65;102134.41;5040064;28;45413;-79
2021/10/12 13:15:14;;;;;;;;;2.50;2.50;;;;;16.49;56.29;102139.63;5029465;28;45426;-79
2021/10/12 13:17:40;;;;;;;;;3.25;2.50;;;;;16.46;56.09;102147.69;5025090;28;45332;-79
2021/10/12 13:20:07;;;;;;;;;6.50;5.25;;;;;16.43;56.68;102143.34;5040169;28;46744;-79
2021/10/12 13:22:33;;;;;;;;;4.75;4.50;;;;;16.36;56.46;102134.75;5039715;28;45229;-79
2021/10/12 13:24:58;;;;;;;;;3.00;2.75;;;;;16.35;56.78;102135.66;5040324;28;45233;-79
2021/10/12 13:27:24;;;;;;;;;4.00;4.00;;;;;16.37;57.14;102139.09;5027010;28;45227;-79
2021/10/12 13:29:49;;;;;;;;;7.25;5.00;;;;;16.29;56.99;102122.63;5039753;28;45251;-79
2021/10/12 13:32:17;;;;;;;;;4.25;4.25;;;;;16.29;56.54;102118.19;5039960;28;45238;-79
2021/10/12 13:34:42;;;;;;;;;4.00;4.00;;;;;16.35;57.02;102119.72;5032229;28;45381;-79
2021/10/12 13:37:08;;;;;;;;;6.00;3.25;;;;;16.37;56.70;102119.69;5034381;28;45448;-79
2021/10/12 13:39:33;;;;;;;;;5.50;4.50;;;;;16.37;56.26;102125.00;5038704;28;45401;-79
2021/10/12 13:42:01;;;;;;;;;6.00;4.75;;;;;16.34;56.47;102114.50;5039693;28;45322;-79
2021/10/12 13:44:26;;;;;;;;;6.25;5.00;;;;;16.35;55.71;102119.72;5026936;28;45508;-79
2021/10/12 13:46:52;;;;;;;;;6.50;4.25;;;;;16.35;56.32;102116.19;5037441;28;45160;-79
2021/10/12 13:49:18;;;;;;;;;6.00;5.00;;;;;16.34;56.29;102125.97;5039666;28;45278;-79
2021/10/12 13:51:43;;;;;;;;;8.00;4.00;;;;;16.36;56.56;102116.16;5039475;28;45235;-79
2021/10/12 13:54:09;;;;;;;;;4.00;3.25;;;;;16.36;56.74;102123.25;5038148;28;45512;-79
2021/10/12 13:56:35;;;;;;;;;5.75;5.00;;;;;16.31;56.87;102118.13;5037831;28;45402;-79
2021/10/12 13:59:00;;;;;;;;;6.75;4.00;;;;;16.34;56.81;102120.66;5027189;28;45435;-79
2021/10/12 14:01:25;;;;;;;;;5.50;4.00;;;;;16.36;55.93;102113.50;5039421;28;45155;-79
2021/10/12 14:03:52;;;;;;;;;4.50;4.50;;;;;16.37;56.13;102111.72;5039666;28;45224;-79
2021/10/12 14:06:17;;;;;;;;;7.50;4.25;;;;;16.37;56.54;102109.91;5039127;28;45460;-79
2021/10/12 14:08:43;;;;;;;;;4.50;3.75;;;;;16.41;56.20;102100.94;5035314;28;45408;-79
2021/10/12 14:11:08;;;;;;;;;4.50;2.75;;;;;16.47;56.04;102109.63;5032925;28;45303;-79
2021/10/12 14:13:34;;;;;;;;;5.25;4.75;;;;;16.44;55.52;102102.63;5043135;28;45315;-79
2021/10/12 14:15:59;;;;;;;;;3.00;2.50;;;;;16.42;55.73;102107.97;5041958;28;45229;-79
2021/10/12 14:18:26;;;;;;;;;5.00;5.00;;;;;16.38;55.36;102098.41;5042371;28;46121;-79
2021/10/12 14:20:53;;;;;;;;;5.25;3.75;;;;;16.36;55.89;102094.94;5030419;28;45576;-79
2021/10/12 14:23:20;;;;;;;;;4.00;4.00;;;;;16.35;56.28;102098.50;5032844;28;45244;-79
2021/10/12 14:25:46;;;;;;;;;4.00;4.00;;;;;16.39;56.47;102101.94;5039699;28;45495;-79
2021/10/12 14:28:13;;;;;;;;;4.25;4.00;;;;;16.37;56.18;102088.69;5042840;28;46311;-79
2021/10/12 14:30:41;;;;;;;;;5.25;2.75;;;;;16.38;56.32;102097.53;5041937;28;45333;-79
2021/10/12 14:33:06;;;;;;;;;5.00;4.00;;;;;16.35;56.36;102101.16;5033531;28;45394;-79
2021/10/12 14:35:32;;;;;;;;;4.50;3.00;;;;;16.34;56.24;102099.44;5041633;28;45454;-79
2021/10/12 14:37:57;;;;;;;;;5.00;4.00;;;;;16.34;56.49;102095.91;5042263;28;45329;-79
2021/10/12 14:40:22;;;;;;;;;5.75;4.00;;;;;16.34;56.86;102088.84;5042589;28;45300;-79
2021/10/12 14:42:48;;;;;;;;;7.25;5.00;;;;;16.37;56.46;102079.91;5042836;28;45216;-79
2021/10/12 14:45:13;;;;;;;;;4.00;4.00;;;;;16.34;56.34;102083.53;5042472;28;45380;-79
2021/10/12 14:47:39;;;;;;;;;4.75;3.75;;;;;16.35;56.19;102082.59;5027787;28;45251;-79
2021/10/12 14:50:06;;;;;;;;;5.50;4.00;;;;;16.35;55.82;102084.38;5042531;28;45224;-79
2021/10/12 14:52:36;;;;;;;;;4.75;3.50;;;;;16.29;56.17;102077.50;5034258;28;45468;-79
2021/10/12 14:55:03;;;;;;;;;4.00;3.50;;;;;16.27;56.19;102077.53;5029228;28;45458;-79
2021/10/12 14:57:29;;;;;;;;;6.00;5.50;;;;;16.22;56.37;102083.97;5042300;28;45410;-79
2021/10/12 14:59:54;;;;;;;;;3.50;3.00;;;;;16.19;56.03;102088.47;5037650;28;45145;-79
2021/10/12 15:02:20;;;;;;;;;4.25;4.25;;;;;16.12;56.19;102078.13;5040470;28;45401;-79
2021/10/12 15:04:45;;;;;;;;;5.50;5.00;;;;;16.04;56.40;102068.63;5038182;28;45485;-79
2021/10/12 15:07:11;;;;;;;;;7.50;7.50;;;;;16.06;56.38;102084.50;5041556;28;46195;-79
2021/10/12 15:09:36;;;;;;;;;8.00;8.00;;;;;16.02;56.56;102083.72;5036117;28;45259;-79
2021/10/12 15:12:03;;;;;;;;;4.50;4.50;;;;;16.02;56.71;102078.41;5035016;28;45289;-79
2021/10/12 15:14:29;;;;;;;;;6.25;5.00;;;;;16.03;56.62;102080.13;5027924;28;45371;-79
2021/10/12 15:16:54;;;;;;;;;7.25;5.75;;;;;15.97;56.70;102067.09;5036177;28;45441;-79
2021/10/12 15:19:26;;;;;;;;;5.75;5.50;;;;;15.98;56.78;102072.31;5041607;28;45369;-79
2021/10/12 15:21:51;;;;;;;;;5.00;5.00;;;;;16.00;56.70;102074.06;5040544;28;45356;-79
2021/10/12 15:24:17;;;;;;;;;4.00;4.00;;;;;15.97;56.96;102075.03;5041757;28;45524;-79
2021/10/12 15:26:43;;;;;;;;;3.25;3.25;;;;;15.93;56.47;102076.06;5030143;28;45564;-79
2021/10/12 15:29:08;;;;;;;;;5.00;5.00;;;;;15.95;56.90;102084.84;5040565;28;45419;-79
2021/10/12 15:31:37;;;;;;;;;5.75;5.00;;;;;15.90;56.85;102071.72;5042045;28;45589;-79
2021/10/12 15:34:03;;;;;;;;;8.00;5.00;;;;;15.90;56.92;102079.66;5041657;28;45449;-79
2021/10/12 15:36:28;;;;;;;;;5.00;5.00;;;;;15.86;56.99;102072.75;5039809;28;45220;-79
2021/10/12 15:39:26;;;;;;;;;7.50;6.00;;;;;15.93;57.22;102084.00;5028217;28;45205;-79
2021/10/12 15:41:54;;;;;;;;;7.50;5.25;;;;;15.88;57.24;102075.38;5041847;28;45463;-79
2021/10/12 15:44:21;;;;;;;;;6.00;4.75;;;;;15.87;57.29;102074.50;5041489;28;45414;-79
2021/10/12 15:46:47;;;;;;;;;7.75;5.50;;;;;15.88;57.31;102086.81;5039831;28;46148;-79
2021/10/12 15:49:14;;;;;;;;;7.25;6.00;;;;;15.89;57.54;102083.25;5041754;28;45271;-79
2021/10/12 15:51:40;;;;;;;;;8.50;6.25;;;;;15.88;57.72;102088.63;5041278;28;45238;-79
2021/10/12 15:54:07;;;;;;;;;5.00;5.00;;;;;15.91;57.55;102086.72;5041559;28;45292;-78
2021/10/12 15:56:33;;;;;;;;;5.00;5.00;;;;;15.89;57.70;102087.69;5026133;28;46406;-79
2021/10/12 15:58:59;;;;;;;;;7.50;7.50;;;;;15.88;57.66;102086.81;5039947;28;45379;-79
2021/10/12 16:01:25;;;;;;;;;5.25;5.00;;;;;15.90;57.89;102082.31;5035703;28;45510;-79
2021/10/12 16:03:50;;;;;;;;;6.00;5.25;;;;;15.91;58.04;102073.47;5050203;28;45429;-79
2021/10/12 16:06:16;;;;;;;;;7.00;5.00;;;;;15.90;58.20;102073.53;5040351;28;45724;-79
2021/10/12 16:08:41;;;;;;;;;6.75;5.25;;;;;15.94;58.06;102089.28;5040203;28;45543;-79
2021/10/12 16:11:07;;;;;;;;;5.00;5.00;;;;;15.94;57.90;102086.63;5041348;28;45220;-79
2021/10/12 16:13:35;;;;;;;;;8.00;5.00;;;;;15.91;58.12;102077.91;5037598;28;46105;-79
2021/10/12 16:16:15;;;;;;;;;7.75;5.75;;;;;15.91;58.06;102080.53;5028413;28;45335;-79
2021/10/12 16:23:52;;;;;;;;;7.75;5.50;;;;;15.91;58.26;102086.72;5040601;28;45488;-79
2021/10/12 16:26:18;;;;;;;;;5.75;5.75;;;;;15.89;58.68;102082.38;5039562;28;45479;-79
2021/10/12 16:28:44;;;;;;;;;5.50;4.75;;;;;15.90;58.52;102082.31;5040785;28;45617;-79
2021/10/12 16:31:11;;;;;;;;;5.25;3.50;;;;;15.90;58.72;102082.31;5041113;28;45272;-79
2021/10/12 16:33:37;;;;;;;;;4.25;4.00;;;;;15.88;58.72;102081.50;5040518;28;45580;-79
2021/10/12 16:36:04;;;;;;;;;6.50;5.25;;;;;15.83;58.93;102086.09;5037280;28;45540;-79
2021/10/12 16:38:29;;;;;;;;;7.75;4.00;;;;;15.86;58.52;102083.34;5040475;28;45314;-79
2021/10/12 16:40:55;;;;;;;;;8.25;5.75;;;;;15.81;58.91;102077.34;5039112;28;45395;-79
2021/10/12 16:43:20;;;;;;;;;5.75;5.75;;;;;15.77;59.17;102073.06;5040729;28;45287;-79
2021/10/12 16:45:46;;;;;;;;;12.50;6.00;;;;;15.79;59.02;102081.84;5027061;28;46261;-79